createdAt,value
2022-07-29T00:00:43.000Z,60.26
2022-07-29T00:01:43.000Z,60.16
2022-07-29T00:02:43.000Z,60.26
2022-07-29T00:03:43.000Z,60.26
2022-07-29T00:04:43.000Z,60.36
2022-07-29T00:05:43.000Z,60.60
2022-07-29T00:06:43.000Z,60.80
2022-07-29T00:07:43.000Z,60.60
2022-07-29T00:08:43.000Z,60.60
2022-07-29T00:09:43.000Z,60.49
2022-07-29T00:10:43.000Z,60.49
2022-07-29T00:11:43.000Z,60.60
2022-07-29T00:12:43.000Z,60.60
2022-07-29T00:13:43.000Z,60.69
2022-07-29T00:14:43.000Z,60.60
2022-07-29T00:15:43.000Z,60.49
2022-07-29T00:16:43.000Z,60.39
2022-07-29T00:17:43.000Z,60.80
2022-07-29T00:18:43.000Z,60.60
2022-07-29T00:19:43.000Z,60.29
2022-07-29T00:20:43.000Z,60.39
2022-07-29T00:21:43.000Z,60.39
2022-07-29T00:22:43.000Z,60.49
2022-07-29T00:23:43.000Z,60.80
2022-07-29T00:24:43.000Z,60.69
2022-07-29T00:25:43.000Z,60.80
2022-07-29T00:26:43.000Z,60.60
2022-07-29T00:27:43.000Z,60.69
2022-07-29T00:28:43.000Z,60.69
2022-07-29T00:29:43.000Z,60.89
2022-07-29T00:30:43.000Z,60.80
2022-07-29T00:31:43.000Z,61.00
2022-07-29T00:32:43.000Z,60.89
2022-07-29T00:33:43.000Z,60.80
2022-07-29T00:34:43.000Z,60.69
2022-07-29T00:35:43.000Z,60.80
2022-07-29T00:36:43.000Z,60.69
2022-07-29T00:37:43.000Z,60.60
2022-07-29T00:38:43.000Z,60.49
2022-07-29T00:39:43.000Z,60.49
2022-07-29T00:40:43.000Z,60.60
2022-07-29T00:41:43.000Z,60.39
2022-07-29T00:42:43.000Z,60.39
2022-07-29T00:43:43.000Z,60.39
2022-07-29T00:44:43.000Z,60.26
2022-07-29T00:45:43.000Z,60.16
2022-07-29T00:46:43.000Z,60.26
2022-07-29T00:47:43.000Z,60.26
2022-07-29T00:48:43.000Z,60.39
2022-07-29T00:49:43.000Z,60.49
2022-07-29T00:50:43.000Z,60.49
2022-07-29T00:51:43.000Z,60.60
2022-07-29T00:52:43.000Z,60.60
2022-07-29T00:53:43.000Z,60.60
2022-07-29T00:54:43.000Z,60.26
2022-07-29T00:55:42.000Z,60.29
2022-07-29T00:56:42.000Z,60.49
2022-07-29T00:57:42.000Z,60.49
2022-07-29T00:58:42.000Z,60.60
2022-07-29T00:59:42.000Z,60.60
2022-07-29T01:00:42.000Z,60.60
2022-07-29T01:01:42.000Z,60.49
2022-07-29T01:02:42.000Z,60.60
2022-07-29T01:03:42.000Z,60.69
2022-07-29T01:04:42.000Z,60.60
2022-07-29T01:05:42.000Z,60.80
2022-07-29T01:06:42.000Z,60.80
2022-07-29T01:07:42.000Z,60.89
2022-07-29T01:08:42.000Z,61.03
2022-07-29T01:09:42.000Z,61.33
2022-07-29T01:10:42.000Z,61.23
2022-07-29T01:11:42.000Z,61.13
2022-07-29T01:12:42.000Z,61.33
2022-07-29T01:13:42.000Z,61.33
2022-07-29T01:14:42.000Z,61.43
2022-07-29T01:15:42.000Z,61.53
2022-07-29T01:16:42.000Z,61.53
2022-07-29T01:17:42.000Z,61.53
2022-07-29T01:18:42.000Z,61.83
2022-07-29T01:19:42.000Z,61.63
2022-07-29T01:20:42.000Z,61.73
2022-07-29T01:20:42.000Z,61.73
2022-07-29T01:21:42.000Z,61.83
2022-07-29T01:21:42.000Z,61.83
2022-07-29T01:22:42.000Z,61.73
2022-07-29T01:22:42.000Z,61.73
2022-07-29T01:23:42.000Z,61.83
2022-07-29T01:23:42.000Z,61.83
2022-07-29T01:24:42.000Z,61.94
2022-07-29T01:24:42.000Z,61.94
2022-07-29T01:25:42.000Z,62.14
2022-07-29T01:26:42.000Z,62.04
2022-07-29T01:27:42.000Z,61.94
2022-07-29T01:28:42.000Z,62.04
2022-07-29T01:29:42.000Z,62.04
2022-07-29T01:30:42.000Z,62.14
2022-07-29T01:31:42.000Z,62.04
2022-07-29T01:32:42.000Z,62.04
2022-07-29T01:33:42.000Z,62.24
2022-07-29T01:34:42.000Z,62.14
2022-07-29T01:35:42.000Z,62.14
2022-07-29T01:36:42.000Z,62.14
2022-07-29T01:37:42.000Z,62.14
2022-07-29T01:38:42.000Z,62.34
2022-07-29T01:39:42.000Z,62.37
2022-07-29T01:40:42.000Z,62.37
2022-07-29T01:41:42.000Z,62.37
2022-07-29T01:42:42.000Z,62.27
2022-07-29T01:43:42.000Z,62.37
2022-07-29T01:44:42.000Z,62.16
2022-07-29T01:45:42.000Z,62.14
2022-07-29T01:46:42.000Z,62.14
2022-07-29T01:47:42.000Z,62.16
2022-07-29T01:48:42.000Z,62.24
2022-07-29T01:49:42.000Z,62.24
2022-07-29T01:50:42.000Z,62.27
2022-07-29T01:51:42.000Z,62.37
2022-07-29T01:52:42.000Z,62.37
2022-07-29T01:53:42.000Z,62.47
2022-07-29T01:54:42.000Z,62.16
2022-07-29T01:55:42.000Z,62.34
2022-07-29T01:56:42.000Z,62.37
2022-07-29T01:57:42.000Z,62.14
2022-07-29T01:58:42.000Z,62.27
2022-07-29T01:59:42.000Z,62.47
2022-07-29T02:00:42.000Z,62.47
2022-07-29T02:01:42.000Z,62.37
2022-07-29T02:02:42.000Z,62.57
2022-07-29T02:03:42.000Z,62.37
2022-07-29T02:04:42.000Z,62.47
2022-07-29T02:05:42.000Z,62.47
2022-07-29T02:06:42.000Z,62.37
2022-07-29T02:07:42.000Z,62.47
2022-07-29T02:08:42.000Z,62.47
2022-07-29T02:09:42.000Z,62.47
2022-07-29T02:10:42.000Z,62.47
2022-07-29T02:11:42.000Z,62.37
2022-07-29T02:12:42.000Z,62.47
2022-07-29T02:13:42.000Z,62.47
2022-07-29T02:14:42.000Z,62.57
2022-07-29T02:15:42.000Z,62.57
2022-07-29T02:16:42.000Z,62.57
2022-07-29T02:17:42.000Z,62.57
2022-07-29T02:18:42.000Z,62.47
2022-07-29T02:19:42.000Z,62.57
2022-07-29T02:20:42.000Z,62.47
2022-07-29T02:21:42.000Z,62.47
2022-07-29T02:22:42.000Z,62.47
2022-07-29T02:23:42.000Z,62.57
2022-07-29T02:24:42.000Z,62.67
2022-07-29T02:25:42.000Z,62.87
2022-07-29T02:26:42.000Z,62.98
2022-07-29T02:27:42.000Z,62.87
2022-07-29T02:28:42.000Z,62.87
2022-07-29T02:29:42.000Z,63.08
2022-07-29T02:30:42.000Z,63.08
2022-07-29T02:31:41.000Z,63.08
2022-07-29T02:32:41.000Z,62.98
2022-07-29T02:33:41.000Z,62.87
2022-07-29T02:34:41.000Z,63.08
2022-07-29T02:35:41.000Z,63.08
2022-07-29T02:36:41.000Z,62.87
2022-07-29T02:37:41.000Z,62.98
2022-07-29T02:38:41.000Z,63.08
2022-07-29T02:39:41.000Z,63.18
2022-07-29T02:40:41.000Z,63.28
2022-07-29T02:41:41.000Z,63.21
2022-07-29T02:42:41.000Z,63.21
2022-07-29T02:43:41.000Z,63.41
2022-07-29T02:44:41.000Z,63.38
2022-07-29T02:45:41.000Z,63.31
2022-07-29T02:46:41.000Z,63.21
2022-07-29T02:47:41.000Z,63.21
2022-07-29T02:48:41.000Z,63.21
2022-07-29T02:49:41.000Z,63.51
2022-07-29T02:50:41.000Z,63.21
2022-07-29T02:51:41.000Z,63.41
2022-07-29T02:52:41.000Z,63.51
2022-07-29T02:53:41.000Z,63.61
2022-07-29T02:54:41.000Z,63.61
2022-07-29T02:55:41.000Z,63.71
2022-07-29T02:56:41.000Z,63.81
2022-07-29T02:57:41.000Z,63.71
2022-07-29T02:58:41.000Z,63.71
2022-07-29T02:59:41.000Z,63.92
2022-07-29T03:00:41.000Z,63.61
2022-07-29T03:01:41.000Z,63.61
2022-07-29T03:02:41.000Z,63.71
2022-07-29T03:03:41.000Z,63.71
2022-07-29T03:04:41.000Z,63.71
2022-07-29T03:05:41.000Z,64.02
2022-07-29T03:06:41.000Z,63.81
2022-07-29T03:07:41.000Z,63.81
2022-07-29T03:08:41.000Z,63.92
2022-07-29T03:09:41.000Z,63.92
2022-07-29T03:10:41.000Z,64.02
2022-07-29T03:11:41.000Z,64.12
2022-07-29T03:12:41.000Z,64.12
2022-07-29T03:13:41.000Z,64.02
2022-07-29T03:14:41.000Z,64.12
2022-07-29T03:15:41.000Z,64.32
2022-07-29T03:16:41.000Z,64.25
2022-07-29T03:17:41.000Z,64.25
2022-07-29T03:18:41.000Z,64.25
2022-07-29T03:19:41.000Z,64.15
2022-07-29T03:20:41.000Z,64.12
2022-07-29T03:21:41.000Z,64.15
2022-07-29T03:22:41.000Z,64.15
2022-07-29T03:23:41.000Z,64.04
2022-07-29T03:24:41.000Z,64.25
2022-07-29T03:25:41.000Z,64.15
2022-07-29T03:26:41.000Z,64.45
2022-07-29T03:27:41.000Z,64.35
2022-07-29T03:28:41.000Z,64.35
2022-07-29T03:29:41.000Z,64.45
2022-07-29T03:30:41.000Z,64.55
2022-07-29T03:31:41.000Z,64.55
2022-07-29T03:32:41.000Z,64.45
2022-07-29T03:33:41.000Z,64.35
2022-07-29T03:34:41.000Z,64.45
2022-07-29T03:35:41.000Z,64.65
2022-07-29T03:36:41.000Z,64.76
2022-07-29T03:37:41.000Z,64.65
2022-07-29T03:38:41.000Z,64.76
2022-07-29T03:39:41.000Z,64.86
2022-07-29T03:40:41.000Z,64.99
2022-07-29T03:41:41.000Z,64.86
2022-07-29T03:42:41.000Z,64.79
2022-07-29T03:43:41.000Z,64.76
2022-07-29T03:44:41.000Z,64.89
2022-07-29T03:45:41.000Z,64.79
2022-07-29T03:46:41.000Z,64.89
2022-07-29T03:47:41.000Z,64.79
2022-07-29T03:48:41.000Z,64.99
2022-07-29T03:49:41.000Z,64.89
2022-07-29T03:50:41.000Z,64.89
2022-07-29T03:51:41.000Z,65.19
2022-07-29T03:52:41.000Z,64.99
2022-07-29T03:53:41.000Z,65.29
2022-07-29T03:54:41.000Z,65.29
2022-07-29T03:55:41.000Z,65.09
2022-07-29T03:56:41.000Z,65.19
2022-07-29T03:57:41.000Z,64.99
2022-07-29T03:58:41.000Z,65.19
2022-07-29T03:59:41.000Z,65.09
2022-07-29T04:00:41.000Z,64.89
2022-07-29T04:01:41.000Z,64.99
2022-07-29T04:02:41.000Z,65.09
2022-07-29T04:03:41.000Z,65.19
2022-07-29T04:04:41.000Z,65.29
2022-07-29T04:05:41.000Z,65.09
2022-07-29T04:06:41.000Z,64.99
2022-07-29T04:07:41.000Z,65.09
2022-07-29T04:08:41.000Z,64.99
2022-07-29T04:09:40.000Z,64.99
2022-07-29T04:10:40.000Z,64.99
2022-07-29T04:11:40.000Z,65.09
2022-07-29T04:12:40.000Z,65.09
2022-07-29T04:13:40.000Z,65.09
2022-07-29T04:14:40.000Z,65.19
2022-07-29T04:15:40.000Z,65.39
2022-07-29T04:16:40.000Z,65.39
2022-07-29T04:17:40.000Z,65.59
2022-07-29T04:18:40.000Z,65.50
2022-07-29T04:19:40.000Z,65.39
2022-07-29T04:20:40.000Z,65.19
2022-07-29T04:21:40.000Z,65.50
2022-07-29T04:22:40.000Z,65.26
2022-07-29T04:23:40.000Z,65.26
2022-07-29T04:24:40.000Z,65.36
2022-07-29T04:25:40.000Z,65.26
2022-07-29T04:26:40.000Z,65.06
2022-07-29T04:27:40.000Z,65.16
2022-07-29T04:28:40.000Z,65.16
2022-07-29T04:29:40.000Z,64.86
2022-07-29T04:30:40.000Z,64.86
2022-07-29T04:31:40.000Z,65.26
2022-07-29T04:32:40.000Z,65.16
2022-07-29T04:33:40.000Z,65.16
2022-07-29T04:34:40.000Z,64.76
2022-07-29T04:35:40.000Z,64.86
2022-07-29T04:36:40.000Z,65.06
2022-07-29T04:37:40.000Z,65.06
2022-07-29T04:38:40.000Z,64.76
2022-07-29T04:39:40.000Z,64.86
2022-07-29T04:40:40.000Z,64.86
2022-07-29T04:41:40.000Z,64.76
2022-07-29T04:42:40.000Z,64.86
2022-07-29T04:43:40.000Z,64.83
2022-07-29T04:44:40.000Z,64.52
2022-07-29T04:45:40.000Z,64.52
2022-07-29T04:46:40.000Z,64.52
2022-07-29T04:47:40.000Z,64.52
2022-07-29T04:48:40.000Z,64.42
2022-07-29T04:49:40.000Z,64.12
2022-07-29T04:50:40.000Z,64.12
2022-07-29T04:51:40.000Z,64.32
2022-07-29T04:52:40.000Z,64.19
2022-07-29T04:53:40.000Z,63.99
2022-07-29T04:54:40.000Z,63.99
2022-07-29T04:55:40.000Z,63.68
2022-07-29T04:56:40.000Z,63.58
2022-07-29T04:57:40.000Z,63.48
2022-07-29T04:58:40.000Z,63.68
2022-07-29T04:59:40.000Z,63.89
2022-07-29T05:00:40.000Z,63.55
2022-07-29T05:01:40.000Z,63.96
2022-07-29T05:02:40.000Z,63.45
2022-07-29T05:03:40.000Z,63.35
2022-07-29T05:04:40.000Z,63.25
2022-07-29T05:05:40.000Z,63.05
2022-07-29T05:06:40.000Z,62.74
2022-07-29T05:07:40.000Z,62.41
2022-07-29T05:08:40.000Z,62.51
2022-07-29T05:09:40.000Z,62.51
2022-07-29T05:10:40.000Z,62.31
2022-07-29T05:11:40.000Z,62.21
2022-07-29T05:12:40.000Z,62.92
2022-07-29T05:13:40.000Z,61.88
2022-07-29T05:14:40.000Z,61.88
2022-07-29T05:15:40.000Z,62.08
2022-07-29T05:16:40.000Z,61.35
2022-07-29T05:17:40.000Z,61.04
2022-07-29T05:18:40.000Z,61.44
2022-07-29T05:19:40.000Z,60.74
2022-07-29T05:20:40.000Z,60.71
2022-07-29T05:21:40.000Z,60.71
2022-07-29T05:22:40.000Z,60.15
2022-07-29T05:23:40.000Z,58.84
2022-07-29T05:24:40.000Z,58.41
2022-07-29T05:25:40.000Z,58.34
2022-07-29T05:26:40.000Z,58.54
2022-07-29T05:27:40.000Z,58.94
2022-07-29T05:28:40.000Z,58.94
2022-07-29T05:29:40.000Z,59.34
2022-07-29T05:30:40.000Z,59.24
2022-07-29T05:31:40.000Z,58.84
2022-07-29T05:32:40.000Z,59.27
2022-07-29T05:33:40.000Z,59.47
2022-07-29T05:34:40.000Z,59.30
2022-07-29T05:35:40.000Z,59.90
2022-07-29T05:36:40.000Z,60.91
2022-07-29T05:37:40.000Z,60.24
2022-07-29T05:38:40.000Z,60.53
2022-07-29T05:39:40.000Z,60.24
2022-07-29T05:40:40.000Z,61.14
2022-07-29T05:41:40.000Z,61.35
2022-07-29T05:42:40.000Z,61.35
2022-07-29T05:43:40.000Z,61.44
2022-07-29T05:44:40.000Z,61.44
2022-07-29T05:45:40.000Z,61.04
2022-07-29T05:46:40.000Z,61.04
2022-07-29T05:47:39.000Z,61.77
2022-07-29T05:48:39.000Z,61.65
2022-07-29T05:49:39.000Z,61.55
2022-07-29T05:50:39.000Z,61.44
2022-07-29T05:51:39.000Z,61.01
2022-07-29T05:52:39.000Z,61.21
2022-07-29T05:53:39.000Z,61.04
2022-07-29T05:54:39.000Z,60.84
2022-07-29T05:55:39.000Z,60.94
2022-07-29T05:56:39.000Z,60.74
2022-07-29T05:57:39.000Z,61.14
2022-07-29T05:58:39.000Z,60.94
2022-07-29T05:59:39.000Z,60.64
2022-07-29T06:00:39.000Z,60.94
2022-07-29T06:01:39.000Z,60.94
2022-07-29T06:02:39.000Z,60.94
2022-07-29T06:03:39.000Z,61.01
2022-07-29T06:04:39.000Z,60.71
2022-07-29T06:05:39.000Z,60.64
2022-07-29T06:06:39.000Z,61.35
2022-07-29T06:07:39.000Z,60.94
2022-07-29T06:08:39.000Z,61.04
2022-07-29T06:09:39.000Z,60.91
2022-07-29T06:10:39.000Z,61.65
2022-07-29T06:11:39.000Z,61.41
2022-07-29T06:12:39.000Z,61.11
2022-07-29T06:13:39.000Z,60.91
2022-07-29T06:14:39.000Z,61.61
2022-07-29T06:15:39.000Z,61.32
2022-07-29T06:16:39.000Z,61.41
2022-07-29T06:17:39.000Z,61.41
2022-07-29T06:18:39.000Z,61.61
2022-07-29T06:19:39.000Z,61.32
2022-07-29T06:20:39.000Z,61.21
2022-07-29T06:21:39.000Z,61.32
2022-07-29T06:22:39.000Z,61.29
2022-07-29T06:23:39.000Z,60.88
2022-07-29T06:24:39.000Z,60.28
2022-07-29T06:25:39.000Z,60.28
2022-07-29T06:26:39.000Z,60.38
2022-07-29T06:27:39.000Z,60.48
2022-07-29T06:28:39.000Z,60.58
2022-07-29T06:29:39.000Z,60.58
2022-07-29T06:30:39.000Z,60.28
2022-07-29T06:30:39.000Z,60.28
2022-07-29T06:31:39.000Z,60.38
2022-07-29T06:31:39.000Z,60.38
2022-07-29T06:32:39.000Z,59.37
2022-07-29T06:32:39.000Z,59.37
2022-07-29T06:33:39.000Z,59.44
2022-07-29T06:33:39.000Z,59.44
2022-07-29T06:34:39.000Z,59.44
2022-07-29T06:34:39.000Z,59.44
2022-07-29T06:35:39.000Z,59.14
2022-07-29T06:36:39.000Z,58.44
2022-07-29T06:37:39.000Z,58.64
2022-07-29T06:38:39.000Z,58.64
2022-07-29T06:39:39.000Z,59.31
2022-07-29T06:40:39.000Z,58.21
2022-07-29T06:41:39.000Z,58.41
2022-07-29T06:42:39.000Z,58.07
2022-07-29T06:43:39.000Z,56.87
2022-07-29T06:44:39.000Z,57.17
2022-07-29T06:45:39.000Z,57.17
2022-07-29T06:46:39.000Z,57.45
2022-07-29T06:47:39.000Z,56.44
2022-07-29T06:48:39.000Z,56.44
2022-07-29T06:49:39.000Z,55.94
2022-07-29T06:50:39.000Z,56.14
2022-07-29T06:51:39.000Z,56.24
2022-07-29T06:52:39.000Z,55.11
2022-07-29T06:53:39.000Z,55.05
2022-07-29T06:54:39.000Z,55.03
2022-07-29T06:55:39.000Z,54.40
2022-07-29T06:56:39.000Z,53.80
2022-07-29T06:57:39.000Z,53.27
2022-07-29T06:58:39.000Z,53.07
2022-07-29T06:59:39.000Z,53.47
2022-07-29T07:00:39.000Z,52.26
2022-07-29T07:01:39.000Z,51.62
2022-07-29T07:02:39.000Z,49.72
2022-07-29T07:03:39.000Z,47.63
2022-07-29T07:04:39.000Z,46.26
2022-07-29T07:05:39.000Z,44.20
2022-07-29T07:06:39.000Z,44.32
2022-07-29T07:07:39.000Z,43.90
2022-07-29T07:08:39.000Z,45.02
2022-07-29T07:09:39.000Z,45.42
2022-07-29T07:10:39.000Z,45.48
2022-07-29T07:11:39.000Z,45.98
2022-07-29T07:12:39.000Z,45.44
2022-07-29T07:13:39.000Z,43.68
2022-07-29T07:14:39.000Z,43.88
2022-07-29T07:15:39.000Z,44.36
2022-07-29T07:16:39.000Z,43.66
2022-07-29T07:17:39.000Z,43.07
2022-07-29T07:18:39.000Z,42.63
2022-07-29T07:19:39.000Z,42.13
2022-07-29T07:20:39.000Z,42.03
2022-07-29T07:21:39.000Z,41.91
2022-07-29T07:22:39.000Z,40.90
2022-07-29T07:23:39.000Z,40.60
2022-07-29T07:24:38.000Z,42.79
2022-07-29T07:25:38.000Z,44.02
2022-07-29T07:26:38.000Z,44.10
2022-07-29T07:27:38.000Z,43.59
2022-07-29T07:28:38.000Z,42.99
2022-07-29T07:29:38.000Z,42.75
2022-07-29T07:30:38.000Z,42.03
2022-07-29T07:31:38.000Z,41.00
2022-07-29T07:32:38.000Z,40.60
2022-07-29T07:33:38.000Z,41.71
2022-07-29T07:34:38.000Z,40.80
2022-07-29T07:35:38.000Z,40.26
2022-07-29T07:36:38.000Z,39.85
2022-07-29T07:37:38.000Z,39.12
2022-07-29T07:38:38.000Z,40.17
2022-07-29T07:39:38.000Z,40.38
2022-07-29T07:40:38.000Z,39.97
2022-07-29T07:41:38.000Z,41.00
2022-07-29T07:42:38.000Z,42.33
2022-07-29T07:43:38.000Z,41.91
2022-07-29T07:44:38.000Z,42.53
2022-07-29T07:45:38.000Z,41.74
2022-07-29T07:46:38.000Z,45.02
2022-07-29T07:47:38.000Z,44.45
2022-07-29T07:48:38.000Z,44.74
2022-07-29T07:49:38.000Z,44.31
2022-07-29T07:50:38.000Z,43.16
2022-07-29T07:51:38.000Z,42.72
2022-07-29T07:52:38.000Z,43.20
2022-07-29T07:53:38.000Z,41.93
2022-07-29T07:54:38.000Z,41.82
2022-07-29T07:55:38.000Z,42.01
2022-07-29T07:56:38.000Z,41.52
2022-07-29T07:57:38.000Z,41.08
2022-07-29T07:58:38.000Z,40.28
2022-07-29T07:59:38.000Z,41.00
2022-07-29T08:00:38.000Z,40.88
2022-07-29T08:01:38.000Z,40.36
2022-07-29T08:02:38.000Z,40.96
2022-07-29T08:03:38.000Z,39.93
2022-07-29T08:04:38.000Z,39.53
2022-07-29T08:05:38.000Z,40.56
2022-07-29T08:06:38.000Z,40.76
2022-07-29T08:07:38.000Z,40.07
2022-07-29T08:08:38.000Z,40.76
2022-07-29T08:09:38.000Z,39.95
2022-07-29T08:10:38.000Z,41.00
2022-07-29T08:11:38.000Z,41.39
2022-07-29T08:12:38.000Z,41.60
2022-07-29T08:13:38.000Z,41.28
2022-07-29T08:14:38.000Z,40.68
2022-07-29T08:15:38.000Z,41.17
2022-07-29T08:16:38.000Z,40.88
2022-07-29T08:17:38.000Z,42.03
2022-07-29T08:18:38.000Z,43.51
2022-07-29T08:19:38.000Z,44.62
2022-07-29T08:20:38.000Z,44.40
2022-07-29T08:21:38.000Z,42.85
2022-07-29T08:22:38.000Z,42.53
2022-07-29T08:23:38.000Z,42.17
2022-07-29T08:24:38.000Z,44.10
2022-07-29T08:25:38.000Z,44.28
2022-07-29T08:26:38.000Z,43.54
2022-07-29T08:27:38.000Z,42.71
2022-07-29T08:28:38.000Z,41.50
2022-07-29T08:29:38.000Z,40.66
2022-07-29T08:30:38.000Z,40.25
2022-07-29T08:31:38.000Z,40.86
2022-07-29T08:32:38.000Z,41.95
2022-07-29T08:33:38.000Z,43.44
2022-07-29T08:34:38.000Z,42.71
2022-07-29T08:35:38.000Z,41.99
2022-07-29T08:36:38.000Z,40.88
2022-07-29T08:37:38.000Z,41.30
2022-07-29T08:38:38.000Z,41.61
2022-07-29T08:39:38.000Z,42.35
2022-07-29T08:40:38.000Z,42.83
2022-07-29T08:41:38.000Z,42.29
2022-07-29T08:42:38.000Z,41.99
2022-07-29T08:43:38.000Z,42.72
2022-07-29T08:44:38.000Z,42.61
2022-07-29T08:45:38.000Z,42.01
2022-07-29T08:46:38.000Z,42.33
2022-07-29T08:47:38.000Z,43.94
2022-07-29T08:48:38.000Z,42.80
2022-07-29T08:49:38.000Z,42.09
2022-07-29T08:50:38.000Z,43.50
2022-07-29T08:51:38.000Z,41.91
2022-07-29T08:52:38.000Z,41.99
2022-07-29T08:53:38.000Z,41.89
2022-07-29T08:54:38.000Z,41.89
2022-07-29T08:55:38.000Z,42.11
2022-07-29T08:56:38.000Z,42.58
2022-07-29T08:57:38.000Z,42.01
2022-07-29T08:58:38.000Z,42.03
2022-07-29T08:59:38.000Z,42.65
2022-07-29T09:00:38.000Z,43.15
2022-07-29T09:01:38.000Z,43.76
2022-07-29T09:02:38.000Z,43.16
2022-07-29T09:03:38.000Z,43.44
2022-07-29T09:04:37.000Z,42.83
2022-07-29T09:05:37.000Z,43.01
2022-07-29T09:06:37.000Z,42.45
2022-07-29T09:07:37.000Z,43.44
2022-07-29T09:08:37.000Z,43.37
2022-07-29T09:09:37.000Z,43.37
2022-07-29T09:10:37.000Z,43.15
2022-07-29T09:11:37.000Z,42.61
2022-07-29T09:12:37.000Z,42.49
2022-07-29T09:13:37.000Z,42.09
2022-07-29T09:14:37.000Z,42.49
2022-07-29T09:15:37.000Z,42.01
2022-07-29T09:16:37.000Z,42.43
2022-07-29T09:17:37.000Z,42.93
2022-07-29T09:18:37.000Z,42.51
2022-07-29T09:19:37.000Z,42.21
2022-07-29T09:20:37.000Z,42.63
2022-07-29T09:21:37.000Z,42.80
2022-07-29T09:22:37.000Z,42.69
2022-07-29T09:23:37.000Z,41.67
2022-07-29T09:24:37.000Z,42.07
2022-07-29T09:25:37.000Z,42.19
2022-07-29T09:26:37.000Z,42.57
2022-07-29T09:27:37.000Z,42.25
2022-07-29T09:28:37.000Z,41.06
2022-07-29T09:29:37.000Z,41.04
2022-07-29T09:30:37.000Z,40.96
2022-07-29T09:30:37.000Z,40.96
2022-07-29T09:31:37.000Z,41.28
2022-07-29T09:31:37.000Z,41.28
2022-07-29T09:32:37.000Z,41.60
2022-07-29T09:32:37.000Z,41.60
2022-07-29T09:33:37.000Z,42.21
2022-07-29T09:33:37.000Z,42.21
2022-07-29T09:34:37.000Z,43.02
2022-07-29T09:34:37.000Z,43.02
2022-07-29T09:35:37.000Z,43.05
2022-07-29T09:36:37.000Z,43.13
2022-07-29T09:37:37.000Z,42.91
2022-07-29T09:38:37.000Z,42.47
2022-07-29T09:39:37.000Z,41.97
2022-07-29T09:40:37.000Z,42.39
2022-07-29T09:41:37.000Z,42.69
2022-07-29T09:42:37.000Z,41.89
2022-07-29T09:43:37.000Z,42.09
2022-07-29T09:44:37.000Z,40.96
2022-07-29T09:45:37.000Z,41.04
2022-07-29T09:46:37.000Z,41.08
2022-07-29T09:47:37.000Z,42.09
2022-07-29T09:48:37.000Z,42.21
2022-07-29T09:49:37.000Z,42.19
2022-07-29T09:50:37.000Z,42.37
2022-07-29T09:51:37.000Z,41.58
2022-07-29T09:52:37.000Z,41.77
2022-07-29T09:53:37.000Z,41.47
2022-07-29T09:54:37.000Z,41.28
2022-07-29T09:55:37.000Z,41.28
2022-07-29T09:56:37.000Z,41.89
2022-07-29T09:57:37.000Z,42.17
2022-07-29T09:58:37.000Z,40.76
2022-07-29T09:59:37.000Z,41.08
2022-07-29T10:00:37.000Z,41.36
2022-07-29T10:01:37.000Z,40.96
2022-07-29T10:02:37.000Z,41.26
2022-07-29T10:03:37.000Z,40.55
2022-07-29T10:04:37.000Z,40.33
2022-07-29T10:05:37.000Z,40.11
2022-07-29T10:06:37.000Z,40.52
2022-07-29T10:07:37.000Z,40.23
2022-07-29T10:08:37.000Z,40.34
2022-07-29T10:09:37.000Z,40.72
2022-07-29T10:10:37.000Z,40.33
2022-07-29T10:11:37.000Z,40.12
2022-07-29T10:12:37.000Z,39.42
2022-07-29T10:13:37.000Z,39.75
2022-07-29T10:14:37.000Z,40.12
2022-07-29T10:15:37.000Z,40.34
2022-07-29T10:16:37.000Z,40.23
2022-07-29T10:17:37.000Z,40.11
2022-07-29T10:18:37.000Z,39.12
2022-07-29T10:19:37.000Z,39.22
2022-07-29T10:20:37.000Z,39.31
2022-07-29T10:21:37.000Z,39.31
2022-07-29T10:22:37.000Z,39.51
2022-07-29T10:23:37.000Z,39.10
2022-07-29T10:24:37.000Z,38.60
2022-07-29T10:25:37.000Z,38.51
2022-07-29T10:26:37.000Z,38.90
2022-07-29T10:27:37.000Z,39.12
2022-07-29T10:28:37.000Z,39.02
2022-07-29T10:29:37.000Z,39.20
2022-07-29T10:30:37.000Z,38.59
2022-07-29T10:31:37.000Z,38.27
2022-07-29T10:32:37.000Z,36.27
2022-07-29T10:33:37.000Z,36.16
2022-07-29T10:34:37.000Z,35.35
2022-07-29T10:35:37.000Z,34.25
2022-07-29T10:36:37.000Z,35.73
2022-07-29T10:37:37.000Z,36.22
2022-07-29T10:38:37.000Z,36.25
2022-07-29T10:39:37.000Z,37.28
2022-07-29T10:40:37.000Z,37.40
2022-07-29T10:41:37.000Z,37.60
2022-07-29T10:42:37.000Z,36.88
2022-07-29T10:43:37.000Z,37.49
2022-07-29T10:44:36.000Z,37.68
2022-07-29T10:45:36.000Z,36.47
2022-07-29T10:46:36.000Z,36.44
2022-07-29T10:47:36.000Z,35.73
2022-07-29T10:48:36.000Z,35.83
2022-07-29T10:49:36.000Z,35.86
2022-07-29T10:50:36.000Z,36.77
2022-07-29T10:51:36.000Z,35.49
2022-07-29T10:52:36.000Z,35.27
2022-07-29T10:53:36.000Z,35.45
2022-07-29T10:54:36.000Z,34.86
2022-07-29T10:55:36.000Z,34.66
2022-07-29T10:56:36.000Z,34.95
2022-07-29T10:57:36.000Z,34.74
2022-07-29T10:58:36.000Z,35.45
2022-07-29T10:59:36.000Z,35.14
2022-07-29T11:00:36.000Z,35.31
2022-07-29T11:01:36.000Z,36.83
2022-07-29T11:02:36.000Z,35.33
2022-07-29T11:03:36.000Z,35.05
2022-07-29T11:04:36.000Z,35.88
2022-07-29T11:05:36.000Z,36.98
2022-07-29T11:06:36.000Z,36.80
2022-07-29T11:07:36.000Z,37.58
2022-07-29T11:08:36.000Z,36.29
2022-07-29T11:09:36.000Z,36.10
2022-07-29T11:10:36.000Z,35.88
2022-07-29T11:11:36.000Z,34.79
2022-07-29T11:12:36.000Z,34.38
2022-07-29T11:13:36.000Z,34.06
2022-07-29T11:14:36.000Z,34.05
2022-07-29T11:15:44.000Z,33.92
2022-07-29T11:16:36.000Z,32.92
2022-07-29T11:17:36.000Z,33.29
2022-07-29T11:18:36.000Z,32.64
2022-07-29T11:19:36.000Z,32.56
2022-07-29T11:20:36.000Z,33.26
2022-07-29T11:20:36.000Z,33.26
2022-07-29T11:21:36.000Z,33.67
2022-07-29T11:21:36.000Z,33.67
2022-07-29T11:22:36.000Z,34.08
2022-07-29T11:22:36.000Z,34.08
2022-07-29T11:23:36.000Z,34.18
2022-07-29T11:23:36.000Z,34.18
2022-07-29T11:24:36.000Z,33.97
2022-07-29T11:24:36.000Z,33.97
2022-07-29T11:25:36.000Z,34.76
2022-07-29T11:26:36.000Z,34.74
2022-07-29T11:27:36.000Z,34.27
2022-07-29T11:28:36.000Z,34.25
2022-07-29T11:29:36.000Z,33.54
2022-07-29T11:30:36.000Z,32.85
2022-07-29T11:30:36.000Z,32.85
2022-07-29T11:31:36.000Z,32.95
2022-07-29T11:31:36.000Z,32.95
2022-07-29T11:32:36.000Z,32.84
2022-07-29T11:32:36.000Z,32.84
2022-07-29T11:33:36.000Z,32.31
2022-07-29T11:33:36.000Z,32.31
2022-07-29T11:34:36.000Z,32.00
2022-07-29T11:34:36.000Z,32.00
2022-07-29T11:35:36.000Z,31.62
2022-07-29T11:36:36.000Z,32.23
2022-07-29T11:37:36.000Z,32.23
2022-07-29T11:38:36.000Z,32.24
2022-07-29T11:39:36.000Z,33.41
2022-07-29T11:40:36.000Z,33.33
2022-07-29T11:41:36.000Z,34.55
2022-07-29T11:42:36.000Z,33.08
2022-07-29T11:43:36.000Z,33.16
2022-07-29T11:44:36.000Z,32.95
2022-07-29T11:45:36.000Z,32.65
2022-07-29T11:46:36.000Z,32.65
2022-07-29T11:47:36.000Z,33.94
2022-07-29T11:48:36.000Z,33.34
2022-07-29T11:49:36.000Z,32.68
2022-07-29T11:50:36.000Z,33.28
2022-07-29T11:50:36.000Z,33.28
2022-07-29T11:51:36.000Z,32.19
2022-07-29T11:51:36.000Z,32.19
2022-07-29T11:52:36.000Z,33.18
2022-07-29T11:52:36.000Z,33.18
2022-07-29T11:53:36.000Z,32.95
2022-07-29T11:53:36.000Z,32.95
2022-07-29T11:54:36.000Z,31.93
2022-07-29T11:54:36.000Z,31.93
2022-07-29T11:55:36.000Z,31.42
2022-07-29T11:56:36.000Z,31.03
2022-07-29T11:57:36.000Z,31.21
2022-07-29T11:58:36.000Z,30.51
2022-07-29T11:59:36.000Z,31.01
2022-07-29T12:00:36.000Z,31.11
2022-07-29T12:00:36.000Z,31.11
2022-07-29T12:01:36.000Z,30.52
2022-07-29T12:01:36.000Z,30.52
2022-07-29T12:02:36.000Z,31.52
2022-07-29T12:02:36.000Z,31.52
2022-07-29T12:03:36.000Z,32.34
2022-07-29T12:03:36.000Z,32.34
2022-07-29T12:04:36.000Z,32.77
2022-07-29T12:04:36.000Z,32.77
2022-07-29T12:05:36.000Z,33.06
2022-07-29T12:06:36.000Z,33.34
2022-07-29T12:07:36.000Z,32.73
2022-07-29T12:08:36.000Z,32.82
2022-07-29T12:09:36.000Z,32.70
2022-07-29T12:10:36.000Z,33.22
2022-07-29T12:11:36.000Z,32.82
2022-07-29T12:12:36.000Z,32.93
2022-07-29T12:13:36.000Z,32.84
2022-07-29T12:14:36.000Z,32.52
2022-07-29T12:15:36.000Z,32.42
2022-07-29T12:16:36.000Z,32.14
2022-07-29T12:17:36.000Z,32.14